Danae C — 9HA3481 — position and weather

sailwx.info

Track history (hours):
 
Tides and Currents Weather Stations Pressure Air Temp Water Temp Dewpoint Dewpoint Depression Visibility Wind Speed Wind Dir Waves Ship Positions

Danae C

Last reported at 2018-Jan-18 18:14 UTC. Time now 2018-Jan-23 12:19 UTC.
Position N 09°11' W 079°52'.

Length 208 m; draft 7.5 m.

Type: Cargo ship. MMSI: 229646000.

Date/timePositionNaut miles runAvg speedWind from/ knotsBaromVisibWave heightAir tempDewpointWater temp
2018-Jan-18 18:14N 09°11' W 079°52'210.9
2018-Jan-18 18:00N 09°12' W 079°54'3 5.1
2018-Jan-18 17:30N 09°14' W 079°56'0 0.1
2018-Jan-18 17:00N 09°14' W 079°56'0 0.1
2018-Jan-18 16:30N 09°14' W 079°56'0 0.1
2018-Jan-18 16:00N 09°14' W 079°56'0 0.1
2018-Jan-18 15:30N 09°14' W 079°56'0 0.0
2018-Jan-18 15:00N 09°14' W 079°56'0 0.2
2018-Jan-18 14:30N 09°14' W 079°56'0 0.0
2018-Jan-18 14:00N 09°14' W 079°56'0 0.1
2018-Jan-18 13:30N 09°14' W 079°56'0 0.1
2018-Jan-18 13:00N 09°14' W 079°56'0 0.1
2018-Jan-18 12:30N 09°14' W 079°56'0 0.0
2018-Jan-18 12:00N 09°14' W 079°56'0 0.1
2018-Jan-18 11:30N 09°14' W 079°56'0 0.1
2018-Jan-18 11:00N 09°14' W 079°56'0 0.3
2018-Jan-18 10:30N 09°14' W 079°56'0 0.4
2018-Jan-18 09:57N 09°14' W 079°56'0 0.1
2018-Jan-18 09:30N 09°14' W 079°56'1 1.5
2018-Jan-18 09:00N 09°15' W 079°55'2 3.5
2018-Jan-18 08:31N 09°16' W 079°55'0 0.4
2018-Jan-18 08:01N 09°17' W 079°55'0 0.7
2018-Jan-18 07:31N 09°17' W 079°55'1 1.4
2018-Jan-18 07:01N 09°18' W 079°55'2 4.5
2018-Jan-18 06:31N 09°20' W 079°55'2 3.4
2018-Jan-18 06:00N 09°22' W 079°55'3 6.3
2018-Jan-18 05:31N 09°25' W 079°55'4 7.6
2018-Jan-18 05:01N 09°28' W 079°54'3 5.1
2018-Jan-18 04:30N 09°29' W 079°51'2 3.5
2018-Jan-18 04:00N 09°30' W 079°50'1 1.4
2018-Jan-18 03:31N 09°30' W 079°50'4 7.3
2018-Jan-18 03:01N 09°27' W 079°53'1 2.8
2018-Jan-18 02:31N 09°26' W 079°53'3 6.1
2018-Jan-18 02:00N 09°23' W 079°54'2 3.9
2018-Jan-18 01:31N 09°21' W 079°53'0 0.0
2018-Jan-18 01:00N 09°21' W 079°53'0 0.0
2018-Jan-18 00:00N 09°21' W 079°53'0 0.0
2018-Jan-17 23:57N 09°21' W 079°53'  
Track history (hours):
 
Tides and Currents Weather Stations Pressure Air Temp Water Temp Dewpoint Dewpoint Depression Visibility Wind Speed Wind Dir Waves Ship Positions

Danae C

Last reported at 2018-Jan-18 18:14 UTC. Time now 2018-Jan-23 12:19 UTC.
Position N 09°11' W 079°52'.

Length 208 m; draft 7.5 m.

Type: Cargo ship. MMSI: 229646000.

Date/timePositionNaut miles runAvg speedWind from/ knotsBaromVisibWave heightAir tempDewpointWater temp
2018-Jan-18 18:14N 09°11' W 079°52'210.9
2018-Jan-18 18:00N 09°12' W 079°54'3 5.1
2018-Jan-18 17:30N 09°14' W 079°56'0 0.1
2018-Jan-18 17:00N 09°14' W 079°56'0 0.1
2018-Jan-18 16:30N 09°14' W 079°56'0 0.1
2018-Jan-18 16:00N 09°14' W 079°56'0 0.1
2018-Jan-18 15:30N 09°14' W 079°56'0 0.0
2018-Jan-18 15:00N 09°14' W 079°56'0 0.2
2018-Jan-18 14:30N 09°14' W 079°56'0 0.0
2018-Jan-18 14:00N 09°14' W 079°56'0 0.1
2018-Jan-18 13:30N 09°14' W 079°56'0 0.1
2018-Jan-18 13:00N 09°14' W 079°56'0 0.1
2018-Jan-18 12:30N 09°14' W 079°56'0 0.0
2018-Jan-18 12:00N 09°14' W 079°56'0 0.1
2018-Jan-18 11:30N 09°14' W 079°56'0 0.1
2018-Jan-18 11:00N 09°14' W 079°56'0 0.3
2018-Jan-18 10:30N 09°14' W 079°56'0 0.4
2018-Jan-18 09:57N 09°14' W 079°56'0 0.1
2018-Jan-18 09:30N 09°14' W 079°56'1 1.5
2018-Jan-18 09:00N 09°15' W 079°55'2 3.5
2018-Jan-18 08:31N 09°16' W 079°55'0 0.4
2018-Jan-18 08:01N 09°17' W 079°55'0 0.7
2018-Jan-18 07:31N 09°17' W 079°55'1 1.4
2018-Jan-18 07:01N 09°18' W 079°55'2 4.5
2018-Jan-18 06:31N 09°20' W 079°55'2 3.4
2018-Jan-18 06:00N 09°22' W 079°55'3 6.3
2018-Jan-18 05:31N 09°25' W 079°55'4 7.6
2018-Jan-18 05:01N 09°28' W 079°54'3 5.1
2018-Jan-18 04:30N 09°29' W 079°51'2 3.5
2018-Jan-18 04:00N 09°30' W 079°50'1 1.4
2018-Jan-18 03:31N 09°30' W 079°50'4 7.3
2018-Jan-18 03:01N 09°27' W 079°53'1 2.8
2018-Jan-18 02:31N 09°26' W 079°53'3 6.1
2018-Jan-18 02:00N 09°23' W 079°54'2 3.9
2018-Jan-18 01:31N 09°21' W 079°53'0 0.0
2018-Jan-18 01:00N 09°21' W 079°53'0 0.0
2018-Jan-18 00:00N 09°21' W 079°53'0 0.0
2018-Jan-17 23:57N 09°21' W 079°53'  

Dump ship's entire track history